Time;durP1;ratioP1;P1;durP2;ratioP2;P2;SDS_P1;SDS_P2;PMS_P1;PMS_P2;Temp;Humidity;BMP_temperature;BMP_pressure;BME280_temperature;BME280_humidity;BME280_pressure;Samples;Min_cycle;Max_cycle;Signal;HPM_P1;HPM_P2
2022/10/27 00:01:20;;;;;;;;;;;12.60;99.90;;;;;;4958697;28;19926;-76
2022/10/27 00:03:49;;;;;;;;;;;12.60;99.90;;;;;;4942877;28;19933;-76
2022/10/27 00:06:14;;;;;;;;;;;12.50;99.90;;;;;;4942990;28;19926;-76
2022/10/27 00:08:40;;;;;;;;;;;12.60;99.90;;;;;;4969277;28;19926;-76
2022/10/27 00:11:06;;;;;;;;;;;12.50;99.90;;;;;;4958988;28;19965;-76
2022/10/27 00:13:32;;;;;;;;;;;12.60;99.90;;;;;;4958997;28;19990;-76
2022/10/27 00:15:58;;;;;;;;;;;12.50;99.90;;;;;;4959349;28;19933;-75
2022/10/27 00:18:24;;;;;;;;;;;12.50;99.90;;;;;;4942961;28;19926;-76
2022/10/27 00:21:16;;;;;;;;;;;12.50;99.90;;;;;;4958363;28;19926;-76
2022/10/27 00:23:42;;;;;;;;;;;12.50;99.90;;;;;;4955866;28;20340;-76
2022/10/27 00:26:10;;;;;;;;;;;12.50;99.90;;;;;;4958818;28;19925;-77
2022/10/27 00:28:36;;;;;;;;;;;12.50;99.90;;;;;;4958721;28;19995;-78
2022/10/27 00:31:12;;;;;;;;;;;12.50;99.90;;;;;;4958686;28;19927;-76
2022/10/27 00:33:38;;;;;;;;;;;12.50;99.90;;;;;;4975619;28;20302;-76
2022/10/27 00:36:10;;;;;;;;;;;12.50;99.90;;;;;;4958880;28;19934;-76
2022/10/27 00:38:37;;;;;;;;;;;12.50;99.90;;;;;;4958374;28;19977;-76
2022/10/27 00:41:05;;;;;;;;;;;12.60;99.90;;;;;;4957635;28;21431;-76
2022/10/27 00:43:32;;;;;;;;;;;12.60;99.90;;;;;;4958501;28;20020;-76
2022/10/27 00:46:04;;;;;;;;;;;12.60;99.90;;;;;;4975717;28;19933;-76
2022/10/27 00:48:30;;;;;;;;;;;12.60;99.90;;;;;;4958892;28;19976;-76
2022/10/27 00:50:58;;;;;;;;;;;12.70;99.90;;;;;;4958386;28;19941;-76
2022/10/27 00:53:23;;;;;;;;;;;12.70;99.90;;;;;;4974816;28;19977;-76
2022/10/27 00:55:49;;;;;;;;;;;12.70;99.90;;;;;;4958025;28;20361;-76
2022/10/27 00:58:17;;;;;;;;;;;12.70;99.90;;;;;;4942456;28;19926;-76
2022/10/27 01:00:43;;;;;;;;;;;12.70;99.90;;;;;;4957743;28;19934;-76
2022/10/27 01:03:10;;;;;;;;;;;12.70;99.90;;;;;;4958376;28;20104;-76
2022/10/27 01:05:35;;;;;;;;;;;12.70;99.90;;;;;;4958266;28;20017;-82
2022/10/27 01:08:03;;;;;;;;;;;12.70;99.90;;;;;;4942333;28;20013;-76
2022/10/27 01:10:28;;;;;;;;;;;12.70;99.90;;;;;;4957615;28;19934;-76
2022/10/27 01:12:54;;;;;;;;;;;12.70;99.90;;;;;;4974297;28;19932;-76
2022/10/27 01:15:22;;;;;;;;;;;12.70;99.90;;;;;;4942354;28;20013;-76
2022/10/27 01:18:04;;;;;;;;;;;12.70;99.90;;;;;;4957679;28;19930;-76
2022/10/27 01:20:42;;;;;;;;;;;12.70;99.90;;;;;;4974953;28;19926;-77
2022/10/27 01:23:14;;;;;;;;;;;12.60;99.90;;;;;;4941517;28;19980;-76
2022/10/27 01:25:46;;;;;;;;;;;12.70;99.90;;;;;;4957248;28;19980;-77
2022/10/27 01:28:20;;;;;;;;;;;12.70;99.90;;;;;;4957996;28;19970;-76
2022/10/27 01:30:53;;;;;;;;;;;12.70;99.90;;;;;;4957518;28;19926;-76
2022/10/27 01:33:21;;;;;;;;;;;12.70;99.90;;;;;;4974843;28;19977;-77
2022/10/27 01:36:05;;;;;;;;;;;12.60;99.90;;;;;;4957215;28;19926;-77
2022/10/27 01:38:39;;;;;;;;;;;12.60;99.90;;;;;;4958043;28;19926;-80
2022/10/27 01:41:06;;;;;;;;;;;12.60;99.90;;;;;;4958116;28;19996;-78
2022/10/27 01:43:33;;;;;;;;;;;12.50;99.90;;;;;;4974781;28;20013;-79
2022/10/27 01:46:00;;;;;;;;;;;12.40;99.90;;;;;;4957575;28;19933;-77
2022/10/27 01:48:26;;;;;;;;;;;12.40;99.90;;;;;;4966479;28;19933;-77
2022/10/27 01:50:51;;;;;;;;;;;12.40;99.90;;;;;;4957475;28;20009;-77
2022/10/27 01:53:17;;;;;;;;;;;12.40;99.90;;;;;;4957564;28;19926;-76
2022/10/27 01:55:48;;;;;;;;;;;12.40;99.90;;;;;;4957679;28;19933;-77
2022/10/27 01:58:30;;;;;;;;;;;12.40;99.90;;;;;;4958100;28;20024;-77
2022/10/27 02:01:05;;;;;;;;;;;12.40;99.90;;;;;;4972920;28;19972;-77
2022/10/27 02:03:51;;;;;;;;;;;12.40;99.90;;;;;;4938656;29;19927;-77
2022/10/27 02:06:23;;;;;;;;;;;12.40;99.90;;;;;;4954665;29;19927;-77
2022/10/27 02:08:57;;;;;;;;;;;12.30;99.90;;;;;;4938350;29;20383;-77
2022/10/27 02:11:22;;;;;;;;;;;12.30;99.90;;;;;;4938445;29;19978;-77
2022/10/27 02:13:48;;;;;;;;;;;12.30;99.90;;;;;;4956151;28;20329;-77
2022/10/27 02:16:18;;;;;;;;;;;12.30;99.90;;;;;;4968756;28;19948;-77
2022/10/27 02:18:55;;;;;;;;;;;12.30;99.90;;;;;;4993809;28;19933;-82
2022/10/27 02:21:22;;;;;;;;;;;12.30;99.90;;;;;;4977629;28;19926;-77
2022/10/27 02:23:48;;;;;;;;;;;12.40;99.90;;;;;;4956842;28;19926;-77
2022/10/27 02:26:16;;;;;;;;;;;12.40;99.90;;;;;;4961583;28;19992;-77
2022/10/27 02:29:02;;;;;;;;;;;12.40;99.90;;;;;;4961321;28;19930;-77
2022/10/27 02:31:39;;;;;;;;;;;12.50;99.90;;;;;;4977991;28;20021;-77
2022/10/27 02:34:05;;;;;;;;;;;12.60;99.90;;;;;;4961371;28;20342;-77
2022/10/27 02:36:31;;;;;;;;;;;12.60;99.90;;;;;;4979821;28;20385;-77
2022/10/27 02:38:56;;;;;;;;;;;12.50;99.90;;;;;;4980395;28;19933;-77
2022/10/27 02:41:22;;;;;;;;;;;12.50;99.90;;;;;;4980720;28;19926;-77
2022/10/27 02:43:48;;;;;;;;;;;12.60;99.90;;;;;;4972121;28;19926;-77
2022/10/27 02:46:13;;;;;;;;;;;12.60;99.90;;;;;;4961269;28;19934;-77
2022/10/27 02:48:39;;;;;;;;;;;12.50;99.90;;;;;;4961231;28;19969;-77
2022/10/27 02:51:04;;;;;;;;;;;12.60;99.90;;;;;;4978329;28;20018;-77
2022/10/27 02:53:30;;;;;;;;;;;12.60;99.90;;;;;;4945095;28;19926;-78
2022/10/27 02:55:55;;;;;;;;;;;12.60;99.90;;;;;;4960824;28;19933;-77
2022/10/27 02:58:21;;;;;;;;;;;12.60;99.90;;;;;;4961263;28;19969;-77
2022/10/27 03:00:47;;;;;;;;;;;12.60;99.90;;;;;;4977807;28;20382;-77
2022/10/27 03:03:12;;;;;;;;;;;12.70;99.90;;;;;;4960775;28;19933;-77
2022/10/27 03:05:38;;;;;;;;;;;12.70;99.90;;;;;;4960753;28;20408;-77
2022/10/27 03:08:03;;;;;;;;;;;12.70;99.90;;;;;;4960787;28;19926;-77
2022/10/27 03:10:29;;;;;;;;;;;12.70;99.90;;;;;;4978027;28;19976;-77
2022/10/27 03:12:55;;;;;;;;;;;12.80;99.90;;;;;;4960606;28;19987;-77
2022/10/27 03:15:20;;;;;;;;;;;12.80;99.90;;;;;;4960401;28;19930;-77
2022/10/27 03:17:46;;;;;;;;;;;12.80;99.90;;;;;;4977783;28;19926;-77
2022/10/27 03:20:12;;;;;;;;;;;12.90;99.90;;;;;;4977197;28;19932;-77
2022/10/27 03:22:38;;;;;;;;;;;12.90;99.90;;;;;;4977753;28;19926;-77
2022/10/27 03:25:04;;;;;;;;;;;12.90;99.90;;;;;;4960164;28;19933;-77
2022/10/27 03:27:29;;;;;;;;;;;12.90;99.90;;;;;;4960155;28;19976;-77
2022/10/27 03:29:55;;;;;;;;;;;12.90;99.90;;;;;;4977369;28;19926;-77
2022/10/27 03:32:20;;;;;;;;;;;13.00;99.90;;;;;;4977103;28;19933;-77
2022/10/27 03:34:46;;;;;;;;;;;13.00;99.90;;;;;;4977210;28;19926;-77
2022/10/27 03:37:12;;;;;;;;;;;13.10;99.90;;;;;;4977198;28;20376;-77
2022/10/27 03:39:37;;;;;;;;;;;13.10;99.90;;;;;;4959864;28;19927;-78
2022/10/27 03:42:03;;;;;;;;;;;13.10;99.90;;;;;;4960772;28;19934;-77
2022/10/27 03:44:28;;;;;;;;;;;13.10;99.90;;;;;;4976674;28;19989;-78
2022/10/27 03:46:54;;;;;;;;;;;13.10;99.90;;;;;;4959686;28;19988;-78
2022/10/27 03:49:20;;;;;;;;;;;13.10;99.90;;;;;;4943594;28;19933;-77
2022/10/27 03:51:45;;;;;;;;;;;13.10;99.90;;;;;;4977028;28;19934;-77
2022/10/27 03:54:11;;;;;;;;;;;13.00;99.90;;;;;;4959792;28;20259;-77
2022/10/27 03:56:36;;;;;;;;;;;13.00;99.90;;;;;;4959729;28;19948;-77
2022/10/27 03:59:02;;;;;;;;;;;13.00;99.90;;;;;;4956784;28;19930;-77
2022/10/27 04:01:31;;;;;;;;;;;13.00;99.90;;;;;;4976780;28;20361;-77
2022/10/27 04:03:56;;;;;;;;;;;13.00;99.90;;;;;;4959267;28;19926;-78
2022/10/27 04:06:22;;;;;;;;;;;13.00;99.90;;;;;;4959454;28;19926;-77
2022/10/27 04:08:47;;;;;;;;;;;13.00;99.90;;;;;;4959991;28;19926;-77
2022/10/27 04:11:13;;;;;;;;;;;13.00;99.90;;;;;;4976565;28;20373;-77
2022/10/27 04:13:39;;;;;;;;;;;13.00;99.90;;;;;;4959416;28;19930;-77
2022/10/27 04:16:05;;;;;;;;;;;13.00;99.90;;;;;;4959206;28;19927;-77
2022/10/27 04:18:31;;;;;;;;;;;13.00;99.90;;;;;;4959227;28;20008;-77
2022/10/27 04:21:03;;;;;;;;;;;13.00;99.90;;;;;;4959594;28;19930;-82
2022/10/27 04:23:29;;;;;;;;;;;13.10;99.90;;;;;;4959557;28;19985;-77
2022/10/27 04:25:55;;;;;;;;;;;13.00;99.90;;;;;;4976307;28;19926;-77
2022/10/27 04:28:20;;;;;;;;;;;13.10;99.90;;;;;;4976246;28;19933;-77
2022/10/27 04:30:46;;;;;;;;;;;13.10;99.90;;;;;;4976322;28;19926;-77
2022/10/27 04:33:11;;;;;;;;;;;13.10;99.90;;;;;;4942766;28;19970;-78
2022/10/27 04:35:37;;;;;;;;;;;13.10;99.90;;;;;;4958996;28;19930;-78
2022/10/27 04:38:03;;;;;;;;;;;13.10;99.90;;;;;;4959231;28;20382;-77
2022/10/27 04:40:28;;;;;;;;;;;13.00;99.90;;;;;;4959023;28;20065;-77
2022/10/27 04:42:55;;;;;;;;;;;13.10;99.90;;;;;;4959253;28;19926;-77
2022/10/27 04:45:21;;;;;;;;;;;13.10;99.90;;;;;;4957845;28;19933;-77
2022/10/27 04:47:47;;;;;;;;;;;13.10;99.90;;;;;;4959246;28;20025;-77
2022/10/27 04:50:13;;;;;;;;;;;13.10;99.90;;;;;;4958738;28;20399;-77
2022/10/27 04:52:38;;;;;;;;;;;13.10;99.90;;;;;;4958565;28;19933;-77
2022/10/27 04:55:04;;;;;;;;;;;13.10;99.90;;;;;;4975649;28;20005;-77
2022/10/27 04:57:30;;;;;;;;;;;13.10;99.90;;;;;;4958973;28;19977;-77
2022/10/27 04:59:55;;;;;;;;;;;13.10;99.90;;;;;;4959048;28;19926;-77
2022/10/27 05:02:21;;;;;;;;;;;13.10;99.90;;;;;;4958714;28;20406;-77
2022/10/27 05:04:46;;;;;;;;;;;13.10;99.90;;;;;;4975453;28;19930;-77
2022/10/27 05:07:12;;;;;;;;;;;13.20;99.90;;;;;;4975543;28;19930;-77
2022/10/27 05:09:37;;;;;;;;;;;13.20;99.90;;;;;;4958740;28;19980;-77
2022/10/27 05:12:03;;;;;;;;;;;13.20;99.90;;;;;;4975651;28;20417;-78
2022/10/27 05:14:29;;;;;;;;;;;13.20;99.90;;;;;;4958658;28;19952;-77
2022/10/27 05:16:54;;;;;;;;;;;13.20;99.90;;;;;;4957806;28;19927;-77
2022/10/27 05:19:20;;;;;;;;;;;13.20;99.90;;;;;;4957298;28;19977;-77
2022/10/27 05:21:45;;;;;;;;;;;13.20;99.90;;;;;;4956726;28;20298;-82
2022/10/27 05:24:11;;;;;;;;;;;13.20;99.90;;;;;;4979435;28;19933;-79
2022/10/27 05:26:36;;;;;;;;;;;13.20;99.90;;;;;;4958214;28;20418;-83
2022/10/27 05:29:02;;;;;;;;;;;13.20;99.90;;;;;;4990552;28;20322;-80
2022/10/27 05:31:28;;;;;;;;;;;13.20;99.90;;;;;;4976321;28;19926;-80
2022/10/27 05:33:53;;;;;;;;;;;13.20;99.90;;;;;;4977319;28;19990;-81
2022/10/27 05:36:19;;;;;;;;;;;13.20;99.90;;;;;;4955675;28;19934;-80
2022/10/27 05:38:45;;;;;;;;;;;13.30;99.90;;;;;;4958402;28;19930;-80
2022/10/27 05:41:11;;;;;;;;;;;13.20;99.90;;;;;;4941932;28;19930;-80
2022/10/27 05:43:37;;;;;;;;;;;13.30;99.90;;;;;;4960394;28;20445;-78
2022/10/27 05:46:03;;;;;;;;;;;13.30;99.90;;;;;;4960180;28;19969;-88
2022/10/27 05:48:29;;;;;;;;;;;13.30;99.90;;;;;;4957090;28;20372;-76
2022/10/27 05:50:55;;;;;;;;;;;13.30;99.90;;;;;;4958093;28;19965;-77
2022/10/27 05:53:20;;;;;;;;;;;13.30;99.90;;;;;;4957731;28;19934;-78
2022/10/27 05:55:46;;;;;;;;;;;13.30;99.90;;;;;;4957744;28;19926;-78
2022/10/27 05:58:12;;;;;;;;;;;13.30;99.90;;;;;;4958048;28;20392;-79
2022/10/27 06:00:38;;;;;;;;;;;13.40;99.90;;;;;;4957880;28;19949;-77
2022/10/27 06:03:05;;;;;;;;;;;13.40;99.90;;;;;;4941520;28;19946;-77
2022/10/27 06:05:33;;;;;;;;;;;13.40;99.90;;;;;;4957255;28;20005;-77
2022/10/27 06:07:59;;;;;;;;;;;13.40;99.90;;;;;;4957640;28;19930;-76
2022/10/27 06:10:25;;;;;;;;;;;13.40;99.90;;;;;;4968236;28;19956;-76
2022/10/27 06:12:51;;;;;;;;;;;13.40;99.90;;;;;;4938361;29;20003;-76
2022/10/27 06:15:16;;;;;;;;;;;13.40;99.90;;;;;;4956988;28;19941;-76
2022/10/27 06:17:50;;;;;;;;;;;13.40;99.90;;;;;;4953022;28;19926;-75
2022/10/27 06:20:16;;;;;;;;;;;13.40;99.90;;;;;;4986798;28;20000;-75
2022/10/27 06:22:44;;;;;;;;;;;13.40;99.90;;;;;;4976456;28;20428;-75
2022/10/27 06:25:10;;;;;;;;;;;13.40;99.90;;;;;;4993693;28;20396;-79
2022/10/27 06:27:35;;;;;;;;;;;13.50;99.90;;;;;;4945526;28;19926;-76
2022/10/27 06:30:01;;;;;;;;;;;13.50;99.90;;;;;;4950196;28;19957;-75
2022/10/27 06:32:26;;;;;;;;;;;13.40;99.90;;;;;;4976343;28;20424;-75
2022/10/27 06:34:52;;;;;;;;;;;13.40;99.90;;;;;;4960586;28;20013;-76
2022/10/27 06:37:17;;;;;;;;;;;13.50;99.90;;;;;;4979931;28;19926;-77
2022/10/27 06:39:43;;;;;;;;;;;13.40;99.90;;;;;;4957000;28;20438;-77
2022/10/27 06:42:08;;;;;;;;;;;13.50;99.90;;;;;;4957338;28;19996;-76
2022/10/27 06:44:34;;;;;;;;;;;13.50;99.90;;;;;;4940717;28;19933;-77
2022/10/27 06:47:00;;;;;;;;;;;13.50;99.90;;;;;;4957257;28;19930;-76
2022/10/27 06:49:25;;;;;;;;;;;13.50;99.90;;;;;;4973821;28;19981;-76
2022/10/27 06:51:51;;;;;;;;;;;13.50;99.90;;;;;;4957356;28;19934;-76
2022/10/27 06:54:16;;;;;;;;;;;13.50;99.90;;;;;;4957270;28;20453;-76
2022/10/27 06:56:42;;;;;;;;;;;13.50;99.90;;;;;;4957540;28;19933;-76
2022/10/27 06:59:07;;;;;;;;;;;13.50;99.90;;;;;;4973197;28;19926;-77
2022/10/27 07:01:33;;;;;;;;;;;13.50;99.90;;;;;;4956813;28;20441;-76
2022/10/27 07:03:58;;;;;;;;;;;13.60;99.90;;;;;;4957271;28;19930;-76
2022/10/27 07:06:24;;;;;;;;;;;13.60;99.90;;;;;;4956545;28;19926;-76
2022/10/27 07:08:51;;;;;;;;;;;13.60;99.90;;;;;;4959021;28;19930;-77
2022/10/27 07:11:17;;;;;;;;;;;13.60;99.90;;;;;;4944236;28;20009;-77
2022/10/27 07:13:43;;;;;;;;;;;13.70;99.90;;;;;;4960358;28;20064;-77
2022/10/27 07:16:09;;;;;;;;;;;13.70;99.90;;;;;;4962489;28;19926;-79
2022/10/27 07:18:37;;;;;;;;;;;13.70;99.90;;;;;;4943994;28;20077;-78
2022/10/27 07:21:03;;;;;;;;;;;13.70;99.90;;;;;;4937944;28;20468;-78
2022/10/27 07:23:29;;;;;;;;;;;13.70;99.90;;;;;;4955045;28;20252;-78
2022/10/27 07:25:54;;;;;;;;;;;13.70;99.90;;;;;;4936074;28;19946;-79
2022/10/27 07:28:20;;;;;;;;;;;13.70;99.90;;;;;;4962857;28;19930;-82
2022/10/27 07:30:47;;;;;;;;;;;13.70;99.90;;;;;;4956116;28;19936;-81
2022/10/27 07:33:12;;;;;;;;;;;13.70;99.90;;;;;;4957138;28;20052;-79
2022/10/27 07:35:38;;;;;;;;;;;13.70;99.90;;;;;;4958544;28;19942;-81
2022/10/27 07:38:05;;;;;;;;;;;13.70;99.90;;;;;;4959730;28;19930;-80
2022/10/27 07:40:31;;;;;;;;;;;13.70;99.90;;;;;;4975677;28;19940;-79
2022/10/27 07:42:58;;;;;;;;;;;13.80;99.90;;;;;;4950331;28;19929;-78
2022/10/27 07:45:25;;;;;;;;;;;13.80;99.90;;;;;;4941812;28;19981;-79
2022/10/27 07:47:52;;;;;;;;;;;13.80;99.90;;;;;;4960229;28;19933;-78
2022/10/27 07:50:18;;;;;;;;;;;13.80;99.90;;;;;;4959474;28;19926;-83
2022/10/27 07:52:45;;;;;;;;;;;13.80;99.90;;;;;;4959127;28;20009;-79
2022/10/27 07:55:11;;;;;;;;;;;13.80;99.90;;;;;;4959170;28;19926;-76
2022/10/27 07:57:37;;;;;;;;;;;13.80;99.90;;;;;;4956429;28;19952;-78
2022/10/27 08:00:04;;;;;;;;;;;13.90;99.90;;;;;;4959630;28;20400;-79
2022/10/27 08:02:30;;;;;;;;;;;13.90;99.90;;;;;;4962610;28;19929;-79
2022/10/27 08:04:56;;;;;;;;;;;13.90;99.90;;;;;;4978423;28;19979;-83
2022/10/27 08:07:22;;;;;;;;;;;13.90;99.90;;;;;;4978535;28;20020;-76
2022/10/27 08:09:47;;;;;;;;;;;13.90;99.90;;;;;;4958403;28;20497;-76
2022/10/27 08:12:13;;;;;;;;;;;13.90;99.90;;;;;;4971477;28;19934;-76
2022/10/27 08:14:39;;;;;;;;;;;13.90;99.90;;;;;;4979307;28;19980;-77
2022/10/27 08:17:04;;;;;;;;;;;13.90;99.90;;;;;;4966119;28;20310;-76
2022/10/27 08:19:30;;;;;;;;;;;14.00;99.90;;;;;;4953931;28;19973;-76
2022/10/27 08:21:55;;;;;;;;;;;14.00;99.90;;;;;;4957463;28;19930;-76
2022/10/27 08:24:21;;;;;;;;;;;14.20;99.90;;;;;;4957207;28;19930;-83
2022/10/27 08:26:46;;;;;;;;;;;14.20;99.90;;;;;;4958289;28;19926;-79
2022/10/27 08:29:12;;;;;;;;;;;14.30;99.90;;;;;;4975611;28;19930;-80
2022/10/27 08:31:37;;;;;;;;;;;14.40;99.90;;;;;;4956300;28;19965;-78
2022/10/27 08:34:03;;;;;;;;;;;14.50;99.90;;;;;;4945485;28;19926;-78
2022/10/27 08:36:31;;;;;;;;;;;14.60;99.90;;;;;;4968505;28;19926;-78
2022/10/27 08:38:56;;;;;;;;;;;14.60;99.90;;;;;;4958582;28;20414;-83
2022/10/27 08:41:32;;;;;;;;;;;14.60;99.90;;;;;;4958226;28;19976;-81
2022/10/27 08:44:21;;;;;;;;;;;14.70;99.90;;;;;;4942584;28;19926;-80
2022/10/27 08:46:51;;;;;;;;;;;14.70;99.90;;;;;;4955938;28;19926;-81
2022/10/27 08:49:29;;;;;;;;;;;14.70;99.90;;;;;;4958414;28;19926;-79
2022/10/27 08:52:04;;;;;;;;;;;14.70;99.90;;;;;;4963787;28;19925;-79
2022/10/27 08:54:30;;;;;;;;;;;14.80;99.90;;;;;;4975292;28;19964;-77
2022/10/27 08:56:57;;;;;;;;;;;14.80;99.90;;;;;;4960118;28;19954;-78
2022/10/27 08:59:23;;;;;;;;;;;14.90;99.90;;;;;;4958050;28;20021;-77
2022/10/27 09:02:00;;;;;;;;;;;15.00;99.90;;;;;;4974908;28;20013;-77
2022/10/27 09:04:38;;;;;;;;;;;15.20;99.90;;;;;;4957285;28;20366;-80
2022/10/27 09:07:04;;;;;;;;;;;15.30;99.90;;;;;;4958275;28;19981;-79
2022/10/27 09:09:40;;;;;;;;;;;15.50;99.90;;;;;;4958036;28;20326;-79
2022/10/27 09:12:25;;;;;;;;;;;15.60;99.90;;;;;;4958035;28;19941;-78
2022/10/27 09:14:50;;;;;;;;;;;15.80;99.90;;;;;;4958035;28;19926;-78
2022/10/27 09:17:22;;;;;;;;;;;15.90;99.90;;;;;;4941892;28;19926;-78
2022/10/27 09:19:49;;;;;;;;;;;15.90;99.90;;;;;;4957366;28;19926;-77
2022/10/27 09:22:17;;;;;;;;;;;16.00;99.90;;;;;;4974363;28;19973;-78
2022/10/27 09:24:42;;;;;;;;;;;16.00;99.90;;;;;;4973812;28;19934;-78
2022/10/27 09:27:11;;;;;;;;;;;16.00;99.90;;;;;;4957975;28;19926;-78
2022/10/27 09:29:37;;;;;;;;;;;16.10;99.90;;;;;;4957723;28;19926;-79
2022/10/27 09:32:14;;;;;;;;;;;16.10;99.90;;;;;;4957577;28;19926;-80
2022/10/27 09:34:43;;;;;;;;;;;16.20;99.90;;;;;;4943974;28;19930;-78
2022/10/27 09:37:12;;;;;;;;;;;16.20;99.90;;;;;;4951484;28;19949;-81
2022/10/27 09:39:45;;;;;;;;;;;16.20;99.90;;;;;;4966123;28;19926;-79
2022/10/27 09:42:11;;;;;;;;;;;16.30;99.90;;;;;;4976197;28;19926;-79
2022/10/27 09:44:36;;;;;;;;;;;16.40;99.90;;;;;;4981567;28;19926;-79
2022/10/27 09:47:02;;;;;;;;;;;16.40;99.90;;;;;;4985991;28;19932;-79
2022/10/27 09:49:35;;;;;;;;;;;16.40;99.90;;;;;;4979959;28;20331;-78
2022/10/27 09:52:23;;;;;;;;;;;16.40;99.90;;;;;;4967316;28;20009;-79
2022/10/27 09:54:50;;;;;;;;;;;16.40;99.90;;;;;;4970537;28;19933;-79
2022/10/27 09:57:19;;;;;;;;;;;16.40;99.90;;;;;;4975144;28;19926;-78
2022/10/27 09:59:53;;;;;;;;;;;16.50;99.90;;;;;;4941362;28;19927;-79
2022/10/27 10:02:23;;;;;;;;;;;16.50;99.90;;;;;;4957281;28;19926;-78
2022/10/27 10:04:49;;;;;;;;;;;16.40;99.90;;;;;;4956923;28;20019;-79
2022/10/27 10:07:33;;;;;;;;;;;16.40;99.90;;;;;;4957064;28;19970;-79
2022/10/27 10:10:18;;;;;;;;;;;16.50;99.90;;;;;;4959984;28;21360;-78
2022/10/27 10:12:43;;;;;;;;;;;16.50;99.90;;;;;;4963156;28;20039;-79
2022/10/27 10:15:09;;;;;;;;;;;16.50;99.90;;;;;;4957508;28;19930;-79
2022/10/27 10:17:35;;;;;;;;;;;16.50;99.90;;;;;;4978270;28;19980;-79
2022/10/27 10:20:01;;;;;;;;;;;16.50;99.90;;;;;;4966931;28;19928;-78
2022/10/27 10:22:31;;;;;;;;;;;16.60;99.90;;;;;;4941364;28;19934;-78
2022/10/27 10:24:58;;;;;;;;;;;16.60;99.90;;;;;;4972045;28;19926;-79
2022/10/27 10:27:26;;;;;;;;;;;16.80;99.90;;;;;;4973489;28;19942;-79
2022/10/27 10:29:52;;;;;;;;;;;16.90;99.90;;;;;;4956783;28;20324;-78
2022/10/27 10:32:20;;;;;;;;;;;17.00;99.90;;;;;;4956938;28;19926;-78
2022/10/27 10:34:47;;;;;;;;;;;17.10;99.90;;;;;;4964553;28;19930;-79
2022/10/27 10:37:31;;;;;;;;;;;17.10;99.90;;;;;;4961585;28;19941;-78
2022/10/27 10:40:26;;;;;;;;;;;17.20;99.90;;;;;;4950353;28;19976;-81
2022/10/27 10:42:59;;;;;;;;;;;17.30;99.90;;;;;;4932557;28;19926;-77
2022/10/27 10:45:26;;;;;;;;;;;17.30;99.90;;;;;;4954122;28;19933;-79
2022/10/27 10:47:59;;;;;;;;;;;17.30;99.90;;;;;;4956967;28;19926;-78
2022/10/27 10:50:24;;;;;;;;;;;17.40;99.90;;;;;;4971377;28;20087;-78
2022/10/27 10:52:55;;;;;;;;;;;17.60;99.90;;;;;;4957502;28;20410;-80
2022/10/27 10:55:35;;;;;;;;;;;17.60;99.90;;;;;;4971945;28;20065;-79
2022/10/27 10:58:00;;;;;;;;;;;17.60;99.90;;;;;;4963789;28;20302;-82
2022/10/27 11:00:26;;;;;;;;;;;17.60;99.90;;;;;;4935113;28;19930;-82
2022/10/27 11:02:55;;;;;;;;;;;17.60;99.90;;;;;;4950218;28;20381;-83
2022/10/27 11:05:27;;;;;;;;;;;17.80;99.90;;;;;;4948261;28;20010;-80
2022/10/27 11:07:53;;;;;;;;;;;18.00;99.90;;;;;;4949164;28;19996;-81
2022/10/27 11:10:27;;;;;;;;;;;18.30;99.90;;;;;;4962806;28;20267;-80
2022/10/27 11:13:00;;;;;;;;;;;18.50;99.90;;;;;;4953058;28;19930;-81
2022/10/27 11:15:46;;;;;;;;;;;18.80;99.90;;;;;;4941073;29;20013;-79
2022/10/27 11:18:14;;;;;;;;;;;18.90;99.90;;;;;;4960312;28;19973;-78
2022/10/27 11:20:41;;;;;;;;;;;19.10;99.90;;;;;;4964662;28;19930;-83
2022/10/27 11:23:24;;;;;;;;;;;19.40;99.90;;;;;;4959038;28;20361;-78
2022/10/27 11:25:51;;;;;;;;;;;19.70;99.90;;;;;;4959532;28;19930;-79
2022/10/27 11:28:35;;;;;;;;;;;20.00;99.90;;;;;;4977459;28;19984;-78
2022/10/27 11:31:06;;;;;;;;;;;20.00;99.90;;;;;;4954966;28;19979;-78
2022/10/27 11:33:55;;;;;;;;;;;20.00;99.90;;;;;;4962045;28;19926;-78
2022/10/27 11:36:34;;;;;;;;;;;19.90;99.90;;;;;;4966749;28;20169;-82
2022/10/27 11:39:08;;;;;;;;;;;19.90;99.90;;;;;;4953737;28;19977;-82
2022/10/27 11:41:45;;;;;;;;;;;20.00;99.90;;;;;;4976841;28;19926;-80
2022/10/27 11:44:19;;;;;;;;;;;20.10;99.90;;;;;;4964615;28;20309;-80
2022/10/27 11:46:50;;;;;;;;;;;20.20;99.90;;;;;;4953353;28;19926;-79
2022/10/27 11:49:35;;;;;;;;;;;20.20;99.90;;;;;;4975700;28;19944;-80
2022/10/27 11:52:14;;;;;;;;;;;20.30;99.90;;;;;;4971028;28;19933;-83
2022/10/27 11:54:40;;;;;;;;;;;20.50;99.90;;;;;;4965513;28;19937;-79
2022/10/27 11:57:21;;;;;;;;;;;20.80;99.90;;;;;;4954149;28;19926;-81
2022/10/27 12:00:05;;;;;;;;;;;21.00;99.90;;;;;;4944031;28;19930;-78
2022/10/27 12:02:31;;;;;;;;;;;21.30;99.90;;;;;;4960607;28;20271;-78
2022/10/27 12:05:09;;;;;;;;;;;21.40;99.90;;;;;;4959718;28;19933;-77
2022/10/27 12:07:43;;;;;;;;;;;21.40;99.90;;;;;;4975480;28;20368;-78
2022/10/27 12:10:08;;;;;;;;;;;21.30;99.90;;;;;;4969356;28;19926;-77
2022/10/27 12:12:36;;;;;;;;;;;21.10;99.90;;;;;;4971734;28;19926;-79
2022/10/27 12:15:16;;;;;;;;;;;21.10;99.90;;;;;;4969372;28;19936;-78
2022/10/27 12:17:56;;;;;;;;;;;20.90;99.90;;;;;;4962364;28;19926;-78
2022/10/27 12:20:42;;;;;;;;;;;21.00;99.90;;;;;;4969594;28;19926;-78
2022/10/27 12:23:10;;;;;;;;;;;21.00;99.90;;;;;;4939463;29;19927;-78
2022/10/27 12:25:39;;;;;;;;;;;20.90;99.90;;;;;;4935790;28;19933;-78
2022/10/27 12:28:07;;;;;;;;;;;20.80;99.90;;;;;;4958415;28;19983;-78
2022/10/27 12:30:33;;;;;;;;;;;20.70;99.90;;;;;;4975538;28;19933;-79
2022/10/27 12:32:58;;;;;;;;;;;20.50;99.90;;;;;;4975151;28;19926;-78
2022/10/27 12:35:42;;;;;;;;;;;20.30;99.90;;;;;;4970254;28;19926;-78
2022/10/27 12:38:08;;;;;;;;;;;20.20;99.90;;;;;;4975344;28;19957;-78
2022/10/27 12:40:52;;;;;;;;;;;20.10;99.90;;;;;;4959396;28;19926;-78
2022/10/27 12:43:25;;;;;;;;;;;19.90;99.90;;;;;;4960176;28;19977;-80
2022/10/27 12:46:09;;;;;;;;;;;19.90;99.90;;;;;;4961912;28;20391;-79
2022/10/27 12:48:51;;;;;;;;;;;19.90;99.90;;;;;;4929033;29;19926;-78
2022/10/27 12:51:20;;;;;;;;;;;19.90;99.90;;;;;;4942082;28;19926;-78
2022/10/27 12:53:54;;;;;;;;;;;19.80;99.90;;;;;;4944369;28;20024;-81
2022/10/27 12:56:29;;;;;;;;;;;19.70;99.90;;;;;;4959204;28;19926;-78
2022/10/27 12:59:07;;;;;;;;;;;19.70;99.90;;;;;;4958096;28;19930;-81
2022/10/27 13:01:59;;;;;;;;;;;19.50;99.90;;;;;;4957847;28;19934;-82
2022/10/27 13:04:40;;;;;;;;;;;19.40;99.90;;;;;;4931451;28;20453;-77
2022/10/27 13:07:11;;;;;;;;;;;19.30;99.90;;;;;;4967553;28;19926;-80
2022/10/27 13:09:55;;;;;;;;;;;19.20;99.90;;;;;;4971573;28;20384;-79
2022/10/27 13:12:27;;;;;;;;;;;19.20;99.90;;;;;;4963766;28;20021;-81
2022/10/27 13:15:02;;;;;;;;;;;19.10;99.90;;;;;;4958221;28;20033;-83
2022/10/27 13:17:27;;;;;;;;;;;19.10;99.90;;;;;;4953335;28;20005;-83
2022/10/27 13:20:02;;;;;;;;;;;18.90;99.90;;;;;;4942159;28;20008;-86
2022/10/27 13:22:27;;;;;;;;;;;18.90;99.90;;;;;;4951182;28;19926;-80
2022/10/27 13:24:59;;;;;;;;;;;18.90;99.90;;;;;;4966770;28;19933;-83
2022/10/27 13:27:29;;;;;;;;;;;18.80;99.90;;;;;;4971380;28;19934;-79
2022/10/27 13:30:03;;;;;;;;;;;18.80;99.90;;;;;;4951728;28;19973;-79
2022/10/27 13:32:36;;;;;;;;;;;18.70;99.90;;;;;;4954689;28;19926;-83
2022/10/27 13:35:02;;;;;;;;;;;18.70;99.90;;;;;;4949139;28;19927;-82
2022/10/27 13:37:40;;;;;;;;;;;18.60;99.90;;;;;;4954636;28;19927;-77
2022/10/27 13:40:26;;;;;;;;;;;18.50;99.90;;;;;;4957345;28;19926;-76
2022/10/27 13:42:52;;;;;;;;;;;18.50;99.90;;;;;;4929867;29;19977;-76
2022/10/27 13:45:34;;;;;;;;;;;18.40;99.90;;;;;;4974081;28;19933;-77
2022/10/27 13:48:05;;;;;;;;;;;18.30;99.90;;;;;;4957205;28;19977;-75
2022/10/27 13:50:31;;;;;;;;;;;18.20;99.90;;;;;;4952365;28;19981;-78
2022/10/27 13:53:19;;;;;;;;;;;18.00;99.90;;;;;;4949002;29;19927;-76
2022/10/27 13:55:47;;;;;;;;;;;17.80;99.90;;;;;;4948583;28;20021;-78
2022/10/27 13:58:13;;;;;;;;;;;17.70;99.90;;;;;;4973337;28;20254;-77
2022/10/27 14:00:57;;;;;;;;;;;17.60;99.90;;;;;;4956981;28;19926;-76
2022/10/27 14:03:42;;;;;;;;;;;17.50;99.90;;;;;;4956940;28;19959;-77
2022/10/27 14:06:07;;;;;;;;;;;17.40;99.90;;;;;;4957425;28;20068;-77
2022/10/27 14:08:35;;;;;;;;;;;17.40;99.90;;;;;;4941193;28;20029;-76
2022/10/27 14:11:11;;;;;;;;;;;17.40;99.90;;;;;;4974115;28;19957;-76
2022/10/27 14:13:44;;;;;;;;;;;17.40;99.90;;;;;;4941651;28;19933;-76
2022/10/27 14:16:14;;;;;;;;;;;17.40;99.90;;;;;;4956959;28;19933;-77
2022/10/27 14:18:39;;;;;;;;;;;17.50;99.90;;;;;;4958959;28;20465;-75
2022/10/27 14:21:24;;;;;;;;;;;17.50;99.90;;;;;;4961027;28;20008;-76
2022/10/27 14:23:50;;;;;;;;;;;17.50;99.90;;;;;;4961140;28;19992;-77
2022/10/27 14:26:23;;;;;;;;;;;17.50;99.90;;;;;;4944945;28;19926;-75
2022/10/27 14:28:48;;;;;;;;;;;17.60;99.90;;;;;;4960918;28;19933;-76